Time;durP1;ratioP1;P1;durP2;ratioP2;P2;SDS_P1;SDS_P2;PMS_P1;PMS_P2;Temp;Humidity;BMP_temperature;BMP_pressure;BME280_temperature;BME280_humidity;BME280_pressure;Samples;Min_cycle;Max_cycle;Signal;HPM_P1;HPM_P2
2022/01/11 00:00:31;;;;;;;;;64.25;53.00;;;;;-1.30;100.00;99611.22;5060686;28;8850;-79
2022/01/11 00:03:17;;;;;;;;;68.50;55.50;;;;;-1.35;100.00;99606.69;5075088;28;8848;-79
2022/01/11 00:05:52;;;;;;;;;69.75;57.25;;;;;-1.32;100.00;99606.81;5087172;28;8851;-80
2022/01/11 00:08:29;;;;;;;;;68.50;55.75;;;;;-1.33;100.00;99610.19;5062604;28;8877;-80
2022/01/11 00:11:04;;;;;;;;;70.75;54.00;;;;;-1.26;100.00;99602.88;5082121;28;8849;-80
2022/01/11 00:13:36;;;;;;;;;54.75;43.75;;;;;-1.25;100.00;99606.31;5070768;28;8854;-80
2022/01/11 00:16:07;;;;;;;;;70.00;51.50;;;;;-1.27;100.00;99607.94;5087129;28;8995;-80
2022/01/11 00:18:38;;;;;;;;;59.75;49.00;;;;;-1.31;100.00;99614.56;5070223;28;8873;-80
2022/01/11 00:21:07;;;;;;;;;66.00;50.00;;;;;-1.33;100.00;99618.75;5086978;28;8880;-82
2022/01/11 00:26:23;;;;;;;;;60.25;49.25;;;;;-1.28;100.00;99614.72;5065672;28;8890;-79
2022/01/11 00:28:52;;;;;;;;;58.00;47.50;;;;;-1.22;100.00;99620.13;5050460;28;8881;-80
2022/01/11 00:31:26;;;;;;;;;58.50;50.25;;;;;-1.18;100.00;99629.69;5067003;28;8833;-81
2022/01/11 00:34:01;;;;;;;;;54.25;45.00;;;;;-1.12;100.00;99631.69;5070955;28;8899;-82
2022/01/11 00:36:41;;;;;;;;;60.00;47.75;;;;;-1.20;100.00;99633.00;5087362;28;8894;-80
2022/01/11 00:39:11;;;;;;;;;61.50;50.25;;;;;-1.16;100.00;99642.56;5056427;28;8897;-81
2022/01/11 00:41:40;;;;;;;;;49.75;42.75;;;;;-1.18;100.00;99639.94;5070044;28;8890;-81
2022/01/11 00:44:10;;;;;;;;;57.25;47.50;;;;;-1.06;100.00;99643.88;5070671;28;8968;-82
2022/01/11 00:46:40;;;;;;;;;60.50;51.50;;;;;-1.04;100.00;99643.16;5069961;28;8833;-81
2022/01/11 00:49:11;;;;;;;;;62.75;51.75;;;;;-1.07;100.00;99643.00;5086765;28;8849;-80
2022/01/11 00:51:40;;;;;;;;;49.00;40.75;;;;;-1.18;100.00;99645.06;5069931;28;8878;-80
2022/01/11 00:54:09;;;;;;;;;60.50;51.25;;;;;-1.21;100.00;99650.03;5069401;28;8856;-80
2022/01/11 00:56:38;;;;;;;;;66.00;52.50;;;;;-1.11;100.00;99648.78;5083117;28;8883;-79
2022/01/11 00:59:07;;;;;;;;;59.50;49.75;;;;;-1.02;100.00;99648.34;5068985;28;8871;-83
2022/01/11 01:01:37;;;;;;;;;52.25;48.00;;;;;-0.96;99.52;99656.31;5035767;28;8871;-80
2022/01/11 01:04:08;;;;;;;;;54.75;45.00;;;;;-1.05;99.30;99654.19;5057007;28;8860;-81
2022/01/11 01:06:39;;;;;;;;;51.25;44.50;;;;;-0.98;98.60;99658.81;5086294;28;8858;-80
2022/01/11 01:09:11;;;;;;;;;51.75;44.50;;;;;-1.03;98.50;99662.81;5086137;28;8862;-78
2022/01/11 01:11:45;;;;;;;;;59.50;49.75;;;;;-1.03;100.00;99667.06;5106271;28;8855;-80
2022/01/11 01:14:16;;;;;;;;;12.00;10.00;;;;;-1.00;98.95;99665.53;5073809;28;8872;-79
2022/01/11 01:16:47;;;;;;;;;52.25;36.25;;;;;-0.99;98.77;99662.16;5074115;28;8960;-78
2022/01/11 01:19:32;;;;;;;;;44.00;43.00;;;;;-1.03;98.62;99665.38;5070046;28;8942;-80
2022/01/11 01:22:02;;;;;;;;;47.00;40.50;;;;;-1.02;99.29;99668.81;5068790;28;8879;-80
2022/01/11 01:24:31;;;;;;;;;51.75;44.50;;;;;-0.94;98.78;99675.19;5065377;28;8864;-80
2022/01/11 01:27:01;;;;;;;;;42.75;39.75;;;;;-0.99;98.54;99664.72;5051293;28;8856;-82
2022/01/11 01:29:29;;;;;;;;;54.75;44.50;;;;;-0.85;98.52;99683.31;5052481;28;8856;-81
2022/01/11 01:32:00;;;;;;;;;49.50;41.00;;;;;-0.93;98.71;99670.94;5038917;28;8888;-81
2022/01/11 01:34:29;;;;;;;;;52.00;41.00;;;;;-1.01;99.53;99680.81;5051618;28;8843;-80
2022/01/11 01:36:58;;;;;;;;;54.75;46.50;;;;;-1.00;99.45;99685.16;5043435;28;9666;-79
2022/01/11 01:39:29;;;;;;;;;42.50;38.75;;;;;-0.98;99.63;99678.41;5030507;28;8864;-80
2022/01/11 01:41:59;;;;;;;;;48.50;41.00;;;;;-0.90;99.60;99682.19;5051692;28;9720;-80
2022/01/11 01:44:27;;;;;;;;;47.00;44.00;;;;;-0.65;98.21;99686.78;5052014;28;8894;-80
2022/01/11 01:46:57;;;;;;;;;53.75;45.25;;;;;-0.77;98.24;99675.13;5035213;28;8864;-79
2022/01/11 01:49:27;;;;;;;;;44.25;39.75;;;;;-0.90;97.64;99687.31;5051607;28;8867;-79
2022/01/11 01:51:57;;;;;;;;;25.00;25.00;;;;;-0.89;98.45;99694.22;5051682;28;8921;-79
2022/01/11 01:54:26;;;;;;;;;49.00;38.00;;;;;-0.79;97.99;99693.81;5068067;28;8986;-78
2022/01/11 01:56:57;;;;;;;;;51.25;42.25;;;;;-0.70;96.55;99689.94;5051547;28;8852;-80
2022/01/11 01:59:25;;;;;;;;;38.50;34.50;;;;;-0.66;96.63;99694.38;5087359;28;8888;-79
2022/01/11 02:01:55;;;;;;;;;41.75;33.50;;;;;-0.63;96.77;99697.09;5089639;28;8877;-78
2022/01/11 02:04:24;;;;;;;;;38.25;36.50;;;;;-0.77;96.42;99700.72;5071191;28;8858;-80
2022/01/11 02:06:53;;;;;;;;;39.50;35.00;;;;;-0.87;97.10;99700.28;5071514;28;8841;-80
2022/01/11 02:09:22;;;;;;;;;44.00;40.75;;;;;-0.96;97.34;99699.84;5041350;28;8844;-79
2022/01/11 02:11:51;;;;;;;;;39.50;31.75;;;;;-0.98;97.58;99699.75;5054874;28;8859;-79
2022/01/11 02:14:23;;;;;;;;;25.25;23.75;;;;;-0.83;97.09;99704.72;5071109;28;9623;-80
2022/01/11 02:16:52;;;;;;;;;24.75;24.75;;;;;-0.81;96.66;99700.56;5055173;28;8859;-82
2022/01/11 02:19:21;;;;;;;;;29.50;23.50;;;;;-0.80;96.07;99704.00;5055738;28;8839;-80
2022/01/11 02:21:52;;;;;;;;;35.50;30.25;;;;;-0.87;97.25;99707.06;5071297;28;8869;-80
2022/01/11 02:24:21;;;;;;;;;36.25;31.00;;;;;-0.65;96.06;99717.50;5088152;28;8967;-78
2022/01/11 02:26:50;;;;;;;;;32.00;27.75;;;;;-0.70;95.50;99720.66;5071410;28;8961;-81
2022/01/11 02:29:20;;;;;;;;;30.25;25.00;;;;;-0.86;96.10;99716.50;5071383;28;8993;-80
2022/01/11 02:31:50;;;;;;;;;33.75;30.00;;;;;-0.76;96.53;99722.94;5071245;28;8847;-80
2022/01/11 02:34:19;;;;;;;;;31.50;29.00;;;;;-0.83;96.61;99716.66;5054535;28;8945;-79
2022/01/11 02:37:04;;;;;;;;;25.50;25.50;;;;;-0.89;96.76;99724.94;5038191;28;8846;-80
2022/01/11 02:39:38;;;;;;;;;35.00;26.00;;;;;-0.82;95.83;99724.38;5066426;28;8857;-79
2022/01/11 02:42:21;;;;;;;;;28.50;25.50;;;;;-0.83;95.75;99726.91;5072548;28;8892;-79
2022/01/11 02:44:50;;;;;;;;;32.50;30.75;;;;;-0.82;95.31;99723.53;5072055;28;8848;-81
2022/01/11 02:47:22;;;;;;;;;30.75;27.25;;;;;-0.95;95.74;99723.75;5072319;28;8859;-80
2022/01/11 02:49:54;;;;;;;;;33.25;31.00;;;;;-0.95;96.03;99734.84;5089053;28;9628;-82
2022/01/11 02:52:32;;;;;;;;;24.50;23.00;;;;;-0.96;96.37;99729.66;5089077;28;8886;-79
2022/01/11 02:55:09;;;;;;;;;23.75;21.50;;;;;-0.85;96.19;99731.94;5072075;28;9720;-79
2022/01/11 02:57:39;;;;;;;;;30.50;27.75;;;;;-0.90;95.46;99741.06;5088334;28;8974;-79
2022/01/11 03:00:18;;;;;;;;;32.00;29.50;;;;;-0.89;95.93;99747.97;5072328;28;8930;-82
2022/01/11 03:02:48;;;;;;;;;31.25;24.75;;;;;-0.78;95.53;99751.03;4998321;28;8840;-81
2022/01/11 03:05:24;;;;;;;;;31.75;24.25;;;;;-0.67;94.93;99752.41;5047096;28;8878;-81
2022/01/11 03:07:57;;;;;;;;;26.75;24.00;;;;;-0.78;95.08;99751.03;5014421;28;8870;-80
2022/01/11 03:10:32;;;;;;;;;36.50;29.00;;;;;-0.88;95.24;99743.72;5046880;28;8840;-81
2022/01/11 03:13:05;;;;;;;;;25.00;21.50;;;;;-0.96;96.25;99756.16;5030845;28;8858;-80
2022/01/11 03:15:35;;;;;;;;;21.25;19.25;;;;;-0.73;95.21;99751.25;5014285;28;8832;-80
2022/01/11 03:18:08;;;;;;;;;27.00;24.75;;;;;-0.69;93.76;99760.84;5010952;28;9610;-80
2022/01/11 03:20:45;;;;;;;;;24.50;21.00;;;;;-0.68;93.97;99753.22;5026672;28;8877;-81
2022/01/11 03:23:18;;;;;;;;;30.00;24.75;;;;;-0.54;92.43;99753.00;4987330;28;8892;-81
2022/01/11 03:25:49;;;;;;;;;28.50;26.75;;;;;-0.67;92.43;99761.78;4971185;28;9364;-80
2022/01/11 03:28:19;;;;;;;;;25.00;22.00;;;;;-0.69;93.67;99756.59;4940829;28;8918;-81
2022/01/11 03:30:50;;;;;;;;;29.00;25.50;;;;;-0.68;93.03;99767.69;4987344;28;8994;-79
2022/01/11 03:33:19;;;;;;;;;18.00;12.50;;;;;-1.01;94.66;99771.25;4980646;28;8836;-79
2022/01/11 03:35:51;;;;;;;;;20.00;18.00;;;;;-1.08;96.19;99760.66;5025224;28;8856;-81
2022/01/11 03:38:23;;;;;;;;;22.00;20.00;;;;;-0.88;94.87;99771.88;5030515;28;8925;-80
2022/01/11 03:41:00;;;;;;;;;28.50;24.75;;;;;-0.79;95.00;99777.44;5030209;28;8863;-80
2022/01/11 03:43:29;;;;;;;;;14.50;9.00;;;;;-1.04;95.71;99775.34;5029901;28;8952;-79
2022/01/11 03:45:58;;;;;;;;;24.25;21.25;;;;;-0.66;94.79;99773.75;5029845;28;8893;-79
2022/01/11 03:48:29;;;;;;;;;20.50;18.75;;;;;-0.35;92.63;99780.34;5033024;28;8853;-82
2022/01/11 03:50:58;;;;;;;;;21.75;18.00;;;;;-0.30;90.93;99773.75;5049387;28;8898;-79
2022/01/11 03:54:04;;;;;;;;;21.00;21.00;;;;;-0.48;91.59;99787.44;5041460;28;8834;-80
2022/01/11 03:56:37;;;;;;;;;18.00;16.50;;;;;-0.30;91.50;99791.69;4997152;28;8862;-77
2022/01/11 03:59:14;;;;;;;;;26.75;23.50;;;;;-0.13;90.74;99792.47;5013021;28;8869;-80
2022/01/11 04:01:45;;;;;;;;;22.00;19.50;;;;;0.11;88.66;99800.41;5029253;28;9029;-80
2022/01/11 04:04:15;;;;;;;;;23.00;21.50;;;;;0.01;89.17;99793.97;5029570;28;9004;-78
2022/01/11 04:06:44;;;;;;;;;25.25;20.75;;;;;0.10;87.70;99793.53;5024032;28;8887;-79
2022/01/11 04:09:15;;;;;;;;;17.50;15.25;;;;;0.39;86.75;99800.81;5012670;28;8881;-79
2022/01/11 04:11:45;;;;;;;;;26.75;23.00;;;;;0.49;85.73;99806.34;5012742;28;8853;-78
2022/01/11 04:14:14;;;;;;;;;24.50;21.25;;;;;0.75;85.14;99800.66;5029461;28;8947;-79
2022/01/11 04:16:43;;;;;;;;;29.50;24.00;;;;;0.97;84.31;99809.28;5029082;28;8854;-81
2022/01/11 04:19:14;;;;;;;;;25.50;19.75;;;;;1.03;82.22;99809.53;5045826;28;9564;-79
2022/01/11 04:21:43;;;;;;;;;20.00;18.50;;;;;1.04;82.03;99808.75;5036325;28;8846;-79
2022/01/11 04:24:13;;;;;;;;;21.25;19.00;;;;;1.01;81.31;99811.16;5012568;28;8862;-80
2022/01/11 04:26:47;;;;;;;;;27.80;22.40;;;;;1.22;80.10;99815.44;5012497;28;8870;-79
2022/01/11 04:29:16;;;;;;;;;26.00;24.50;;;;;1.02;79.23;99818.06;5045528;28;8870;-80
2022/01/11 04:31:45;;;;;;;;;18.60;16.20;;;;;0.95;81.48;99823.75;5068175;28;8872;-81
2022/01/11 04:34:19;;;;;;;;;19.80;16.00;;;;;1.09;80.58;99827.75;5070638;28;9615;-79
2022/01/11 04:36:49;;;;;;;;;28.25;19.25;;;;;1.23;79.92;99832.59;5061172;28;8862;-79
2022/01/11 04:39:19;;;;;;;;;25.50;21.50;;;;;1.40;79.11;99833.28;5051143;28;8852;-80
2022/01/11 04:41:50;;;;;;;;;23.00;21.00;;;;;1.20;79.53;99833.34;5070417;28;8845;-78
2022/01/11 04:44:20;;;;;;;;;24.25;21.75;;;;;0.87;81.01;99835.38;5070579;28;8865;-79
2022/01/11 04:46:50;;;;;;;;;22.00;21.25;;;;;1.12;79.76;99843.31;5069722;28;8888;-80
2022/01/11 04:49:19;;;;;;;;;17.80;17.00;;;;;1.20;78.40;99835.06;5066431;28;8838;-79
2022/01/11 04:51:48;;;;;;;;;19.50;18.50;;;;;1.26;78.67;99843.88;5034613;28;8920;-80
2022/01/11 04:54:17;;;;;;;;;20.50;16.00;;;;;1.21;78.17;99844.50;5070031;28;8849;-81
2022/01/11 04:56:46;;;;;;;;;26.25;21.50;;;;;1.12;78.09;99845.88;5052091;28;8880;-80
2022/01/11 04:59:16;;;;;;;;;24.00;18.20;;;;;1.22;77.20;99852.28;5086652;28;9713;-80
2022/01/11 05:01:45;;;;;;;;;32.00;24.50;;;;;0.65;79.68;99862.69;5052090;28;8869;-78
2022/01/11 05:04:15;;;;;;;;;27.00;22.00;;;;;0.76;80.52;99858.91;5052103;28;8873;-79
2022/01/11 05:06:44;;;;;;;;;18.80;18.60;;;;;0.64;80.12;99858.34;5047547;28;8990;-80
2022/01/11 05:09:13;;;;;;;;;24.75;19.50;;;;;0.42;81.16;99860.75;5047974;28;8857;-78
2022/01/11 05:11:42;;;;;;;;;16.75;12.75;;;;;0.09;82.88;99874.69;5047872;28;8862;-79
2022/01/11 05:14:11;;;;;;;;;48.25;45.00;;;;;0.19;83.00;99876.00;5031841;28;8858;-79
2022/01/11 05:16:52;;;;;;;;;23.25;20.00;;;;;-0.59;85.56;99878.25;5032519;28;9629;-79
2022/01/11 05:19:23;;;;;;;;;17.00;16.60;;;;;-0.60;87.64;99885.06;5033507;28;8879;-81
2022/01/11 05:21:52;;;;;;;;;19.00;18.25;;;;;-0.70;86.93;99880.31;5012362;28;8861;-81
2022/01/11 05:24:21;;;;;;;;;23.00;20.50;;;;;-0.53;86.83;99887.94;5007946;28;8874;-79
2022/01/11 05:26:54;;;;;;;;;18.75;17.50;;;;;-0.54;86.24;99893.88;5008339;28;8873;-79
2022/01/11 05:29:25;;;;;;;;;22.25;19.50;;;;;-0.94;89.12;99897.88;4960309;28;8885;-81
2022/01/11 05:31:56;;;;;;;;;22.00;19.00;;;;;-0.85;88.61;99905.13;4992178;28;8849;-81
2022/01/11 05:34:25;;;;;;;;;19.80;19.80;;;;;-0.82;88.07;99902.72;4992119;28;10362;-78
2022/01/11 05:36:55;;;;;;;;;19.50;13.50;;;;;-1.16;89.77;99906.13;4988228;28;8860;-80
2022/01/11 05:39:24;;;;;;;;;18.25;18.00;;;;;-1.18;90.46;99910.28;4990189;28;8897;-79
2022/01/11 05:41:53;;;;;;;;;17.00;15.75;;;;;-1.24;91.27;99913.41;4992093;28;8888;-77
2022/01/11 05:44:22;;;;;;;;;15.50;14.00;;;;;-1.33;91.41;99915.47;4992145;28;8856;-79
2022/01/11 05:46:51;;;;;;;;;25.75;20.00;;;;;-1.43;92.19;99918.34;5008085;28;8883;-80
2022/01/11 05:49:23;;;;;;;;;15.25;11.00;;;;;-1.42;93.21;99918.44;4993314;28;8852;-78
2022/01/11 05:51:52;;;;;;;;;26.50;21.75;;;;;-1.31;92.16;99931.78;5014906;28;8867;-80
2022/01/11 05:54:20;;;;;;;;;27.75;24.00;;;;;-1.66;93.66;99935.88;5018317;28;9018;-78
2022/01/11 05:56:51;;;;;;;;;15.75;13.25;;;;;-1.73;94.02;99945.69;5009892;28;8964;-79
2022/01/11 05:59:20;;;;;;;;;19.75;14.00;;;;;-1.69;94.76;99943.38;4989025;28;8866;-80
2022/01/11 06:01:49;;;;;;;;;17.00;17.00;;;;;-1.82;95.14;99956.28;5015344;28;8862;-79
2022/01/11 06:04:19;;;;;;;;;17.00;16.00;;;;;-1.89;95.87;99954.19;5021930;28;8946;-81
2022/01/11 06:06:49;;;;;;;;;16.00;14.75;;;;;-1.86;95.99;99957.78;5025887;28;8845;-80
2022/01/11 06:09:18;;;;;;;;;25.25;19.75;;;;;-1.86;95.50;99969.69;5089529;28;8883;-79
2022/01/11 06:11:47;;;;;;;;;23.50;20.50;;;;;-1.92;95.83;99960.00;5059617;28;8965;-78
2022/01/11 06:14:21;;;;;;;;;17.50;12.50;;;;;-1.81;96.56;99958.94;5074668;28;8855;-80
2022/01/11 06:16:50;;;;;;;;;21.25;18.75;;;;;-1.75;96.61;99972.84;5090681;28;8892;-81
2022/01/11 06:19:19;;;;;;;;;23.75;20.25;;;;;-1.61;94.66;99975.38;5049078;28;8890;-78
2022/01/11 06:21:56;;;;;;;;;25.50;22.25;;;;;-1.82;96.01;99984.41;5018574;28;8997;-79
2022/01/11 06:24:27;;;;;;;;;18.50;17.50;;;;;-1.93;95.35;99981.25;5049928;28;8865;-80
2022/01/11 06:26:57;;;;;;;;;15.50;13.50;;;;;-1.81;96.55;99989.59;5053540;28;8860;-79
2022/01/11 06:29:26;;;;;;;;;19.75;18.25;;;;;-1.77;95.80;100003.44;5070791;28;8875;-79
2022/01/11 06:31:55;;;;;;;;;26.50;22.00;;;;;-1.89;95.71;100001.09;5033371;28;8841;-79
2022/01/11 06:34:25;;;;;;;;;20.50;17.00;;;;;-1.97;97.08;100008.31;5038795;28;8850;-77
2022/01/11 06:36:53;;;;;;;;;22.50;17.75;;;;;-1.96;97.00;100006.63;5060417;28;8884;-80
2022/01/11 06:39:29;;;;;;;;;17.75;16.25;;;;;-1.90;97.37;100001.88;5049406;28;8900;-79
2022/01/11 06:41:57;;;;;;;;;23.00;20.00;;;;;-1.87;95.99;100016.47;5050572;28;8870;-79
2022/01/11 06:44:35;;;;;;;;;24.00;20.00;;;;;-1.85;97.54;100012.34;5044721;28;8968;-80
2022/01/11 06:47:05;;;;;;;;;26.25;21.75;;;;;-1.82;96.33;100030.41;5061825;28;8902;-79
2022/01/11 06:49:34;;;;;;;;;32.00;24.50;;;;;-1.94;96.93;100039.97;5104630;28;8840;-79
2022/01/11 06:52:04;;;;;;;;;24.25;19.25;;;;;-1.91;96.83;100030.78;5080715;28;8932;-80
2022/01/11 06:54:38;;;;;;;;;20.50;20.50;;;;;-1.98;96.68;100046.56;5082555;28;8992;-79
2022/01/11 06:57:07;;;;;;;;;24.25;22.25;;;;;-1.93;96.22;100039.13;5102954;28;8849;-80
2022/01/11 06:59:37;;;;;;;;;29.75;25.25;;;;;-1.96;96.98;100043.28;5086159;28;8868;-79
2022/01/11 07:02:08;;;;;;;;;25.00;20.50;;;;;-1.99;97.35;100049.91;5083525;28;8902;-80
2022/01/11 07:04:46;;;;;;;;;25.25;22.50;;;;;-1.89;96.60;100052.19;5088067;28;8868;-81
2022/01/11 07:07:17;;;;;;;;;27.50;23.00;;;;;-1.85;95.90;100051.56;5079480;28;8878;-82
2022/01/11 07:09:48;;;;;;;;;32.50;24.00;;;;;-1.81;96.86;100058.63;5088335;28;8881;-80
2022/01/11 07:12:18;;;;;;;;;28.75;24.00;;;;;-1.71;95.28;100062.56;5080342;28;8915;-81
2022/01/11 07:14:47;;;;;;;;;30.00;25.75;;;;;-1.75;95.48;100067.44;5072068;28;8878;-79
2022/01/11 07:17:17;;;;;;;;;20.50;18.75;;;;;-1.77;94.89;100064.78;5081633;28;8959;-80
2022/01/11 07:19:50;;;;;;;;;29.50;23.00;;;;;-1.84;96.21;100066.09;5065430;28;8845;-80
2022/01/11 07:22:22;;;;;;;;;23.75;19.00;;;;;-1.94;96.27;100073.19;5101922;28;8865;-83
2022/01/11 07:24:53;;;;;;;;;18.25;16.50;;;;;-1.88;95.55;100074.41;5083471;28;8888;-79
2022/01/11 07:27:22;;;;;;;;;28.00;22.50;;;;;-1.90;96.86;100075.09;5081630;28;8976;-80
2022/01/11 07:29:51;;;;;;;;;24.25;22.00;;;;;-1.87;97.68;100076.16;5081842;28;8916;-80
2022/01/11 07:32:21;;;;;;;;;24.25;23.50;;;;;-1.88;96.54;100082.06;5071136;28;8943;-80
2022/01/11 07:34:50;;;;;;;;;24.25;23.25;;;;;-1.80;96.29;100082.50;5069336;28;9035;-81
2022/01/11 07:37:23;;;;;;;;;25.00;19.00;;;;;-1.99;96.52;100091.66;5069023;28;8845;-78
2022/01/11 07:39:54;;;;;;;;;28.25;23.25;;;;;-1.96;96.47;100085.84;5069258;28;8849;-79
2022/01/11 07:42:25;;;;;;;;;29.00;27.25;;;;;-1.96;97.38;100080.75;5064722;28;8892;-79
2022/01/11 07:45:17;;;;;;;;;25.75;18.75;;;;;-1.94;96.21;100091.06;5007499;28;8895;-78
2022/01/11 07:47:48;;;;;;;;;20.50;19.50;;;;;-2.04;95.23;100094.72;5028734;28;8904;-80
2022/01/11 07:50:17;;;;;;;;;28.50;24.75;;;;;-1.97;95.75;100090.09;5025336;28;10122;-79
2022/01/11 07:52:48;;;;;;;;;29.25;25.50;;;;;-1.78;96.52;100096.25;4992587;28;9106;-80
2022/01/11 07:55:19;;;;;;;;;19.25;16.00;;;;;-1.94;96.88;100098.72;4993587;28;8906;-80
2022/01/11 07:57:51;;;;;;;;;28.75;20.50;;;;;-1.98;97.69;100098.53;4994076;28;8994;-81
2022/01/11 08:00:20;;;;;;;;;21.00;19.50;;;;;-1.99;97.20;100104.44;5008549;28;8860;-80
2022/01/11 08:02:53;;;;;;;;;28.25;22.50;;;;;-2.04;97.40;100100.75;5021521;28;8997;-80
2022/01/11 08:05:46;;;;;;;;;22.00;18.00;;;;;-2.01;97.65;100105.16;4950579;28;8874;-81
2022/01/11 08:08:17;;;;;;;;;18.25;17.25;;;;;-2.09;98.17;100109.81;4975619;28;8907;-80
2022/01/11 08:10:47;;;;;;;;;31.00;22.00;;;;;-2.14;98.32;100118.88;4950169;28;8870;-82
2022/01/11 08:13:17;;;;;;;;;21.25;17.50;;;;;-2.04;98.00;100118.63;4946743;28;8898;-82
2022/01/11 08:15:47;;;;;;;;;11.50;11.00;;;;;-2.08;96.80;100123.44;4950360;28;8860;-80
2022/01/11 08:18:17;;;;;;;;;28.00;21.50;;;;;-1.93;96.67;100109.00;4950891;28;8911;-81
2022/01/11 08:20:47;;;;;;;;;20.50;16.75;;;;;-1.77;96.53;100109.13;4964805;28;8864;-81
2022/01/11 08:23:18;;;;;;;;;25.25;23.75;;;;;-1.76;97.15;100120.22;4965641;28;8860;-82
2022/01/11 08:25:48;;;;;;;;;31.50;26.50;;;;;-1.81;97.94;100111.44;4964828;28;9026;-82
2022/01/11 08:28:17;;;;;;;;;32.50;27.75;;;;;-1.77;97.66;100119.34;4993988;28;8872;-81
2022/01/11 08:30:57;;;;;;;;;19.00;18.75;;;;;-1.70;98.15;100124.81;4999081;28;8994;-80
2022/01/11 08:33:30;;;;;;;;;20.50;16.50;;;;;-1.67;97.37;100133.53;5008254;28;8846;-80
2022/01/11 08:36:01;;;;;;;;;33.00;24.00;;;;;-1.64;97.10;100136.28;4992226;28;8874;-80
2022/01/11 08:38:32;;;;;;;;;28.50;25.50;;;;;-1.69;97.01;100132.56;5007909;28;8872;-80
2022/01/11 08:41:06;;;;;;;;;15.75;14.25;;;;;-1.62;95.77;100134.69;4988116;28;8850;-82
2022/01/11 08:43:36;;;;;;;;;21.50;21.00;;;;;-1.62;95.60;100129.56;5035582;28;8861;-79
2022/01/11 08:46:06;;;;;;;;;25.75;21.00;;;;;-1.60;94.29;100139.91;5051947;28;8844;-81
2022/01/11 08:49:00;;;;;;;;;30.75;24.75;;;;;-1.55;95.60;100143.63;5052056;28;8824;-76
2022/01/11 08:51:30;;;;;;;;;28.25;21.25;;;;;-1.72;96.27;100145.19;5050891;28;9647;-75
2022/01/11 08:54:00;;;;;;;;;35.75;33.75;;;;;-1.78;97.42;100147.38;5068205;28;8894;-74
2022/01/11 08:56:31;;;;;;;;;34.00;27.25;;;;;-1.80;97.59;100138.72;5049974;28;8922;-73
2022/01/11 08:59:00;;;;;;;;;20.50;17.00;;;;;-1.88;97.36;100138.28;5067555;28;8856;-72
2022/01/11 09:01:35;;;;;;;;;30.75;26.00;;;;;-1.84;97.80;100139.34;5067198;28;8875;-76
2022/01/11 09:04:07;;;;;;;;;28.75;26.00;;;;;-1.77;97.23;100149.16;5043222;28;8856;-76
2022/01/11 09:06:57;;;;;;;;;25.25;25.00;;;;;-1.74;97.83;100140.75;5026547;28;8884;-78
2022/01/11 09:09:28;;;;;;;;;30.50;24.25;;;;;-1.69;97.83;100135.13;5027114;28;8848;-74
2022/01/11 09:12:06;;;;;;;;;30.00;28.00;;;;;-1.60;98.65;100134.78;5035175;28;8862;-76
2022/01/11 09:14:38;;;;;;;;;34.25;26.50;;;;;-1.61;97.39;100145.78;5045848;28;8852;-73
2022/01/11 09:17:08;;;;;;;;;33.75;30.00;;;;;-1.66;97.48;100144.66;4997171;28;8854;-72
2022/01/11 09:19:37;;;;;;;;;33.00;26.50;;;;;-1.79;96.99;100137.97;5006869;28;8873;-71
2022/01/11 09:22:11;;;;;;;;;23.75;19.00;;;;;-1.82;98.94;100141.19;4964769;28;8967;-75
2022/01/11 09:24:40;;;;;;;;;31.25;27.50;;;;;-1.81;98.25;100137.00;4951297;28;8884;-73
2022/01/11 09:27:15;;;;;;;;;27.75;22.50;;;;;-1.86;99.21;100131.59;4953037;28;8858;-74
2022/01/11 09:29:46;;;;;;;;;22.50;22.00;;;;;-1.84;98.92;100136.78;4952652;28;8884;-73
2022/01/11 09:32:19;;;;;;;;;23.50;22.25;;;;;-1.78;99.55;100132.94;4952621;28;8856;-73
2022/01/11 09:34:51;;;;;;;;;19.75;19.75;;;;;-1.87;98.24;100142.63;4932811;28;8867;-72
2022/01/11 09:37:29;;;;;;;;;17.00;16.75;;;;;-1.83;97.97;100136.03;4991899;28;8934;-73
2022/01/11 09:40:01;;;;;;;;;27.75;22.50;;;;;-1.85;98.34;100140.13;4978219;28;8856;-73
2022/01/11 09:42:32;;;;;;;;;24.25;20.50;;;;;-1.76;98.67;100145.78;5007689;28;8864;-73
2022/01/11 09:45:08;;;;;;;;;21.25;18.50;;;;;-1.68;98.49;100143.66;4989520;28;9108;-74
2022/01/11 09:47:46;;;;;;;;;18.25;15.50;;;;;-1.62;97.81;100144.91;4991230;28;8812;-73
2022/01/11 09:50:19;;;;;;;;;20.50;17.00;;;;;-1.56;96.53;100146.94;5005711;28;8973;-73
2022/01/11 09:52:59;;;;;;;;;26.50;24.00;;;;;-1.69;96.55;100147.91;5010477;28;8850;-73
2022/01/11 09:55:34;;;;;;;;;32.75;31.50;;;;;-1.85;97.61;100152.91;5033475;28;8856;-73
2022/01/11 09:58:05;;;;;;;;;29.50;26.50;;;;;-1.94;98.09;100149.84;5050336;28;8982;-74
2022/01/11 10:00:53;;;;;;;;;28.50;25.25;;;;;-2.00;97.75;100156.34;5087363;28;8885;-73
2022/01/11 10:03:57;;;;;;;;;33.25;27.50;;;;;-2.02;98.18;100160.50;5087437;28;8950;-72
2022/01/11 10:06:43;;;;;;;;;30.50;23.75;;;;;-1.93;98.67;100159.25;5054312;28;8872;-73
2022/01/11 10:09:16;;;;;;;;;26.00;23.75;;;;;-1.99;99.06;100165.75;5050179;28;8909;-73
2022/01/11 10:11:48;;;;;;;;;30.50;30.50;;;;;-2.09;99.04;100166.03;5070241;28;8843;-73
2022/01/11 10:14:22;;;;;;;;;27.00;24.50;;;;;-2.05;99.36;100160.28;5087161;28;8845;-73
2022/01/11 10:17:05;;;;;;;;;21.75;19.00;;;;;-2.00;100.00;100160.59;4998016;28;8870;-73
2022/01/11 10:19:37;;;;;;;;;16.25;12.75;;;;;-2.03;99.55;100165.50;5017248;28;8850;-73
2022/01/11 10:22:09;;;;;;;;;30.75;25.00;;;;;-2.04;99.74;100154.41;5029452;28;8856;-71
2022/01/11 10:24:42;;;;;;;;;23.00;16.50;;;;;-1.97;99.74;100161.66;5032673;28;8884;-72
2022/01/11 10:27:20;;;;;;;;;28.25;24.75;;;;;-2.04;100.00;100156.97;5062290;28;8959;-75
2022/01/11 10:29:52;;;;;;;;;37.50;30.00;;;;;-1.96;100.00;100173.63;5026976;28;8879;-71
2022/01/11 10:32:30;;;;;;;;;30.00;26.50;;;;;-1.84;100.00;100152.13;5050243;28;8875;-72
2022/01/11 10:35:09;;;;;;;;;20.25;15.75;;;;;-1.86;100.00;100162.25;5069994;28;9077;-74
2022/01/11 10:37:41;;;;;;;;;27.50;21.75;;;;;-1.89;100.00;100166.31;5030313;28;9119;-72
2022/01/11 10:40:14;;;;;;;;;32.50;29.00;;;;;-1.80;100.00;100161.75;4965370;28;8976;-73
2022/01/11 10:42:48;;;;;;;;;29.25;24.75;;;;;-1.72;99.87;100172.41;5025936;28;8987;-75
2022/01/11 10:45:20;;;;;;;;;27.25;24.00;;;;;-1.72;100.00;100182.63;5011446;28;8857;-75
2022/01/11 10:47:53;;;;;;;;;33.50;26.50;;;;;-1.78;100.00;100183.16;5015233;28;8862;-74
2022/01/11 10:50:28;;;;;;;;;29.75;28.50;;;;;-1.90;100.00;100195.22;5010907;28;8880;-77
2022/01/11 10:53:01;;;;;;;;;24.75;22.00;;;;;-1.91;100.00;100189.25;5012368;28;8873;-76
2022/01/11 10:55:35;;;;;;;;;23.00;18.75;;;;;-1.94;100.00;100195.84;5007738;28;8861;-75
2022/01/11 10:58:28;;;;;;;;;25.00;22.50;;;;;-1.86;100.00;100199.72;5006737;28;8987;-75
2022/01/11 11:00:58;;;;;;;;;35.25;29.00;;;;;-1.93;99.84;100200.16;5001652;28;8868;-75
2022/01/11 11:03:31;;;;;;;;;32.25;23.25;;;;;-1.88;100.00;100191.97;5008885;28;8865;-74
2022/01/11 11:06:10;;;;;;;;;36.00;34.50;;;;;-1.81;100.00;100193.22;5009242;28;10153;-77
2022/01/11 11:08:44;;;;;;;;;16.50;16.00;;;;;-1.85;100.00;100196.38;4993612;28;8850;-74
2022/01/11 11:11:23;;;;;;;;;36.25;34.75;;;;;-1.82;100.00;100192.31;5009985;28;8873;-75
2022/01/11 11:14:21;;;;;;;;;13.50;12.25;;;;;-1.65;100.00;100195.88;4997150;28;8908;-74
2022/01/11 11:17:26;;;;;;;;;23.00;21.50;;;;;-1.75;99.57;100191.03;4953262;28;9034;-74
2022/01/11 11:20:00;;;;;;;;;37.25;32.50;;;;;-1.64;99.64;100201.88;4961295;28;9647;-76
2022/01/11 11:22:32;;;;;;;;;22.25;21.25;;;;;-1.85;98.34;100204.03;4990236;28;8868;-75
2022/01/11 11:25:02;;;;;;;;;28.75;23.50;;;;;-1.75;99.23;100195.25;5006042;28;9085;-77
2022/01/11 11:27:31;;;;;;;;;26.75;26.75;;;;;-1.70;99.10;100193.84;5006092;28;8875;-74
2022/01/11 11:30:00;;;;;;;;;19.25;17.75;;;;;-1.80;97.95;100197.53;4990105;28;8873;-75
2022/01/11 11:32:32;;;;;;;;;17.50;15.25;;;;;-1.85;97.85;100191.25;4957670;28;8856;-75
2022/01/11 11:35:01;;;;;;;;;37.00;33.00;;;;;-1.74;99.49;100203.00;4989718;28;8847;-74
2022/01/11 11:37:34;;;;;;;;;23.50;20.00;;;;;-1.79;98.72;100197.63;5006029;28;8896;-75
2022/01/11 11:40:07;;;;;;;;;28.00;26.25;;;;;-1.89;98.94;100204.66;4973656;28;8986;-76
2022/01/11 11:42:39;;;;;;;;;28.00;27.25;;;;;-1.85;99.56;100207.50;4989166;28;8853;-76
2022/01/11 11:45:19;;;;;;;;;37.25;32.50;;;;;-1.77;99.76;100207.94;4958715;28;8880;-74
2022/01/11 11:47:48;;;;;;;;;25.75;23.75;;;;;-1.81;99.29;100212.00;4965997;28;8873;-74